Aérodrome :
LOGIN :

S'inscrire | Disclaimer

   EN    FR    IT 

 










Légende :    VFR   VFR Marginal   IFR   IFR Intensif   IFR Très Intensif
Visi : 
Plafond : 
>= 8 km
>= 3000ft
5 à 8 km
1000 à 3000 ft
1500m à 5 km
500 à 1000 ft
800 à 1500m
200 à 500 ft
< 800m
< 200 ft
Symboles :   Orages  Brouillard  Fortes neiges  Fortes précipitations  Vent > 20 kt
SIGMETs :   Divers  Orages  Givrage  Turbulence  Onde Orograph.  Cendres Volcan.






- Altitude de l'aérodrome : 117 ft
- Code IATA : NWI


EGSH - Norwich

DERNIER METAR :
  • 080350Z AUTO 19015KT 9999 NCD 05/03 Q0983

METARs EXPIRÉS :
  • 080320Z AUTO 19012KT 9999 FEW032/// 05/02 Q0983
  • 080250Z AUTO 19013KT 9999 NCD 05/02 Q0983
  • 080220Z AUTO 18014KT 9999 NCD 05/02 Q0983
  • 080150Z AUTO 19012KT 9999 NCD 05/02 Q0983
  • 080120Z AUTO 18013KT 140V220 9999 NCD 05/03 Q0983

TAF TAF EGSH
Valide du 08 à 03h jusqu'au 08 à 12h UTC


080153Z 0803/0812 19015KT 9999 FEW035
TEMPO 0803/0807 20017G27KT
TEMPO 0807/0812 20020G32KT
BECMG 0809/0812 23020G32KT
ATIS : +44 1603 420 640



MET'MAP, la Météo Aéronautique d'un coup d'oeil ! - Copyright ORBIFLY Décembre 2007 - Disclaimer

ORBIFLY MET'MAP TEAM :

Programmation & Développement : Alexandra Zaïnal
Sur une idée originale de : Baudouin d'Aumeries
Assistance à la programmation : Marc-Olivier Méhu
Soutien technique & logistique : Manuel Goepfert

Contact : metmap@orbifly.com




SOURCES & CREDITS :

   NOAA